createdAt,value
2022-11-01T00:00:40.342Z,17.12
2022-11-01T00:02:02.168Z,17.39
2022-11-01T00:03:03.929Z,17.42
2022-11-01T00:04:06.074Z,17.12
2022-11-01T00:05:08.157Z,16.65
2022-11-01T00:06:09.857Z,16.17
2022-11-01T00:07:11.539Z,15.73
2022-11-01T00:08:13.231Z,15.32
2022-11-01T00:09:15.149Z,14.97
2022-11-01T00:11:19.548Z,15.02
2022-11-01T00:12:21.560Z,15.46
2022-11-01T00:13:23.302Z,15.95
2022-11-01T00:14:24.990Z,16.35
2022-11-01T00:15:26.629Z,16.68
2022-11-01T00:16:29.036Z,16.95
2022-11-01T00:17:30.738Z,17.16
2022-11-01T00:18:32.479Z,17.30
2022-11-01T00:19:34.105Z,17.18
2022-11-01T00:20:35.727Z,16.77
2022-11-01T00:21:37.440Z,16.27
2022-11-01T00:22:39.048Z,15.78
2022-11-01T00:23:41.032Z,15.35
2022-11-01T00:24:42.877Z,14.98
2022-11-01T00:25:44.842Z,14.86
2022-11-01T00:26:46.490Z,15.14
2022-11-01T00:27:48.292Z,15.59
2022-11-01T00:28:51.168Z,16.04
2022-11-01T00:29:52.825Z,16.43
2022-11-01T00:30:56.988Z,16.76
2022-11-01T00:32:00.087Z,17.04
2022-11-01T00:33:01.724Z,17.25
2022-11-01T00:34:05.740Z,17.35
2022-11-01T00:35:07.680Z,17.10
2022-11-01T00:36:10.030Z,16.65
2022-11-01T00:37:11.731Z,16.18
2022-11-01T00:38:13.911Z,15.74
2022-11-01T00:39:16.615Z,15.35
2022-11-01T00:40:18.233Z,14.99
2022-11-01T00:41:21.806Z,14.73
2022-11-01T00:42:23.552Z,14.83
2022-11-01T00:43:25.712Z,15.24
2022-11-01T00:44:27.432Z,15.73
2022-11-01T00:45:29.123Z,16.16
2022-11-01T00:46:31.559Z,16.53
2022-11-01T00:47:33.218Z,16.84
2022-11-01T00:48:34.895Z,17.07
2022-11-01T00:49:36.537Z,17.08
2022-11-01T00:50:39.061Z,16.76
2022-11-01T00:51:40.701Z,16.30
2022-11-01T00:52:42.350Z,15.84
2022-11-01T00:53:43.981Z,15.42
2022-11-01T00:54:45.665Z,15.04
2022-11-01T00:55:47.410Z,14.71
2022-11-01T00:56:49.075Z,14.46
2022-11-01T00:57:50.776Z,14.55
2022-11-01T00:58:52.698Z,14.96
2022-11-01T00:59:54.406Z,15.47
2022-11-01T01:00:56.504Z,15.92
2022-11-01T01:01:58.420Z,16.30
2022-11-01T01:03:00.436Z,16.61
2022-11-01T01:04:02.512Z,16.85
2022-11-01T01:05:05.208Z,16.82
2022-11-01T01:06:06.884Z,16.46
2022-11-01T01:07:09.434Z,16.00
2022-11-01T01:08:11.420Z,15.53
2022-11-01T01:09:13.082Z,15.11
2022-11-01T01:10:14.779Z,14.75
2022-11-01T01:11:16.738Z,14.42
2022-11-01T01:12:18.379Z,14.21
2022-11-01T01:13:21.033Z,14.38
2022-11-01T01:14:22.859Z,14.81
2022-11-01T01:15:24.710Z,15.29
2022-11-01T01:16:26.582Z,15.73
2022-11-01T01:17:31.307Z,16.09
2022-11-01T01:18:35.486Z,16.41
2022-11-01T01:19:37.123Z,16.64
2022-11-01T01:20:38.851Z,16.74
2022-11-01T01:21:40.514Z,16.50
2022-11-01T01:22:42.645Z,16.06
2022-11-01T01:23:44.278Z,15.57
2022-11-01T01:24:47.685Z,15.12
2022-11-01T01:25:49.367Z,14.72
2022-11-01T01:26:51.305Z,14.38
2022-11-01T01:27:53.040Z,14.20
2022-11-01T01:28:55.163Z,14.39
2022-11-01T01:29:56.807Z,14.83
2022-11-01T01:30:58.683Z,15.31
2022-11-01T01:32:00.466Z,15.74
2022-11-01T01:33:02.226Z,16.09
2022-11-01T01:34:04.021Z,16.38
2022-11-01T01:35:06.182Z,16.61
2022-11-01T01:36:08.198Z,16.65
2022-11-01T01:37:11.052Z,16.35
2022-11-01T01:38:12.718Z,15.87
2022-11-01T01:39:14.414Z,15.40
2022-11-01T01:40:16.079Z,14.95
2022-11-01T01:41:36.631Z,14.57
2022-11-01T01:42:42.770Z,14.13
2022-11-01T01:43:45.167Z,14.08
2022-11-01T01:44:47.460Z,14.42
2022-11-01T01:45:49.116Z,14.89
2022-11-01T01:46:51.971Z,15.36
2022-11-01T01:47:57.334Z,15.76
2022-11-01T01:49:00.165Z,16.10
2022-11-01T01:50:18.123Z,16.35
2022-11-01T01:51:26.447Z,16.53
2022-11-01T01:52:34.599Z,16.26
2022-11-01T01:53:43.981Z,15.77
2022-11-01T01:54:46.893Z,15.25
2022-11-01T01:55:57.565Z,14.82
2022-11-01T01:56:59.792Z,14.40
2022-11-01T01:58:02.083Z,14.08
2022-11-01T01:59:07.739Z,13.99
2022-11-01T02:00:10.204Z,14.31
2022-11-01T02:01:14.902Z,14.82
2022-11-01T02:02:19.227Z,15.29
2022-11-01T02:03:25.368Z,15.70
2022-11-01T02:04:37.179Z,16.06
2022-11-01T02:05:52.268Z,16.36
2022-11-01T02:06:54.115Z,16.46
2022-11-01T02:07:57.594Z,16.17
2022-11-01T02:09:03.526Z,15.71
2022-11-01T02:10:06.293Z,15.21
2022-11-01T02:11:09.545Z,14.79
2022-11-01T02:12:14.054Z,14.41
2022-11-01T02:13:15.769Z,14.06
2022-11-01T02:14:20.969Z,13.88
2022-11-01T02:15:32.011Z,14.13
2022-11-01T02:17:08.905Z,14.66
2022-11-01T02:18:21.322Z,15.40
2022-11-01T02:20:00.148Z,15.83
2022-11-01T02:21:38.973Z,16.29
2022-11-01T02:23:08.573Z,16.50
2022-11-01T02:24:49.392Z,16.06
2022-11-01T02:26:31.681Z,15.30
2022-11-01T02:27:57.672Z,14.62
2022-11-01T02:29:28.974Z,14.14
2022-11-01T02:30:56.758Z,13.94
2022-11-01T02:32:07.644Z,14.45
2022-11-01T02:33:16.383Z,15.00
2022-11-01T02:34:30.532Z,15.51
2022-11-01T02:36:07.739Z,15.93
2022-11-01T02:37:16.270Z,16.36
2022-11-01T02:38:30.639Z,16.48
2022-11-01T02:39:37.691Z,16.15
2022-11-01T02:41:15.929Z,15.67
2022-11-01T02:42:46.631Z,14.96
2022-11-01T02:43:58.055Z,14.39
2022-11-01T02:45:11.717Z,14.03
2022-11-01T02:47:15.273Z,14.00
2022-11-01T02:48:23.103Z,14.86
2022-11-01T02:49:36.958Z,15.36
2022-11-01T02:50:51.163Z,15.82
2022-11-01T02:51:56.067Z,16.19
2022-11-01T02:52:59.684Z,16.45
2022-11-01T02:54:10.619Z,16.52
2022-11-01T02:55:30.737Z,16.18
2022-11-01T02:56:33.083Z,15.58
2022-11-01T02:57:40.966Z,15.12
2022-11-01T02:58:45.075Z,14.67
2022-11-01T02:59:48.859Z,14.29
2022-11-01T03:00:52.233Z,13.98
2022-11-01T03:02:10.568Z,14.00
2022-11-01T03:03:23.763Z,14.50
2022-11-01T03:04:26.192Z,15.06
2022-11-01T03:05:42.816Z,15.50
2022-11-01T03:06:53.327Z,15.92
2022-11-01T03:08:00.771Z,16.22
2022-11-01T03:09:10.065Z,16.44
2022-11-01T03:10:12.728Z,16.32
2022-11-01T03:11:19.059Z,15.92
2022-11-01T03:13:40.171Z,14.88
2022-11-01T03:14:48.484Z,14.42
2022-11-01T03:16:02.547Z,14.04
2022-11-01T03:17:25.446Z,13.94
2022-11-01T03:18:35.793Z,14.44
2022-11-01T03:20:08.605Z,14.98
2022-11-01T03:21:20.735Z,15.61
2022-11-01T03:22:34.924Z,15.98
2022-11-01T03:23:57.178Z,16.28
2022-11-01T03:25:39.050Z,16.50
2022-11-01T03:26:46.509Z,16.08
2022-11-01T03:27:48.930Z,15.56
2022-11-01T03:28:57.076Z,15.08
2022-11-01T03:30:06.020Z,14.60
2022-11-01T03:31:14.528Z,14.18
2022-11-01T03:32:20.034Z,13.96
2022-11-01T03:33:26.549Z,14.21
2022-11-01T03:34:28.302Z,14.68
2022-11-01T03:35:37.579Z,15.12
2022-11-01T03:36:47.366Z,15.56
2022-11-01T03:37:53.212Z,15.91
2022-11-01T03:39:20.087Z,16.18
2022-11-01T03:40:26.360Z,16.47
2022-11-01T03:41:35.952Z,16.64
2022-11-01T03:42:39.704Z,16.49
2022-11-01T03:43:41.609Z,16.07
2022-11-01T03:44:48.576Z,15.58
2022-11-01T03:45:50.601Z,15.09
2022-11-01T03:46:52.392Z,14.68
2022-11-01T03:47:54.186Z,14.32
2022-11-01T03:48:55.842Z,14.23
2022-11-01T03:50:24.280Z,14.51
2022-11-01T03:51:25.962Z,15.16
2022-11-01T03:52:27.962Z,15.58
2022-11-01T03:53:29.603Z,15.96
2022-11-01T03:54:31.403Z,16.25
2022-11-01T03:55:33.183Z,16.49
2022-11-01T03:56:34.891Z,16.68
2022-11-01T03:57:36.688Z,16.72
2022-11-01T03:58:45.165Z,16.43
2022-11-01T03:59:46.792Z,15.92
2022-11-01T04:00:48.517Z,15.43
2022-11-01T04:01:50.825Z,14.98
2022-11-01T04:02:54.273Z,14.59
2022-11-01T04:03:55.952Z,14.26
2022-11-01T04:04:57.571Z,14.23
2022-11-01T04:05:59.838Z,14.57
2022-11-01T04:07:01.529Z,15.02
2022-11-01T04:08:04.654Z,15.47
2022-11-01T04:09:06.754Z,15.86
2022-11-01T04:10:08.886Z,16.18
2022-11-01T04:11:10.633Z,16.44
2022-11-01T04:12:12.566Z,16.65
2022-11-01T04:13:14.582Z,16.71
2022-11-01T04:14:34.569Z,16.43
2022-11-01T04:15:54.563Z,15.82
2022-11-01T04:17:14.536Z,15.21
2022-11-01T04:20:05.731Z,14.23
2022-11-01T04:21:19.636Z,14.33
2022-11-01T04:22:23.729Z,14.81
2022-11-01T04:23:26.563Z,15.28
2022-11-01T04:24:28.348Z,15.65
2022-11-01T04:25:31.520Z,15.95
2022-11-01T04:26:34.151Z,16.21
2022-11-01T04:27:35.865Z,16.43
2022-11-01T04:28:37.571Z,16.61
2022-11-01T04:29:39.192Z,16.73
2022-11-01T04:30:42.037Z,16.58
2022-11-01T04:31:43.648Z,16.16
2022-11-01T04:32:45.425Z,15.66
2022-11-01T04:33:47.154Z,15.18
2022-11-01T04:34:48.823Z,14.76
2022-11-01T04:35:50.653Z,14.37
2022-11-01T04:36:52.299Z,14.26
2022-11-01T04:37:58.813Z,14.53
2022-11-01T04:39:00.862Z,15.01
2022-11-01T04:40:02.531Z,15.49
2022-11-01T04:41:04.269Z,15.88
2022-11-01T04:42:05.965Z,16.17
2022-11-01T04:43:07.876Z,16.40
2022-11-01T04:44:09.529Z,16.56
2022-11-01T04:45:11.256Z,16.69
2022-11-01T04:46:13.205Z,16.74
2022-11-01T04:47:14.957Z,16.52
2022-11-01T04:48:16.989Z,16.07
2022-11-01T04:49:18.672Z,15.57
2022-11-01T04:50:20.935Z,15.10
2022-11-01T04:51:22.658Z,14.67
2022-11-01T04:52:25.063Z,14.33
2022-11-01T04:53:27.012Z,14.31
2022-11-01T04:54:33.694Z,14.63
2022-11-01T04:55:35.550Z,15.10
2022-11-01T04:56:37.200Z,15.51
2022-11-01T04:57:40.549Z,15.87
2022-11-01T04:58:45.157Z,16.16
2022-11-01T04:59:49.446Z,16.42
2022-11-01T05:00:51.224Z,16.61
2022-11-01T05:01:52.941Z,16.76
2022-11-01T05:03:02.332Z,16.69
2022-11-01T05:04:04.674Z,16.23
2022-11-01T05:05:09.641Z,15.72
2022-11-01T05:06:11.279Z,15.21
2022-11-01T05:07:13.529Z,14.77
2022-11-01T05:08:15.251Z,14.38
2022-11-01T05:09:16.923Z,14.18
2022-11-01T05:10:18.704Z,14.39
2022-11-01T05:11:25.363Z,14.81
2022-11-01T05:12:27.442Z,15.29
2022-11-01T05:13:29.124Z,15.68
2022-11-01T05:14:30.811Z,16.00
2022-11-01T05:15:32.684Z,16.26
2022-11-01T05:16:34.324Z,16.46
2022-11-01T05:17:36.038Z,16.63
2022-11-01T05:18:40.822Z,16.74
2022-11-01T05:19:42.473Z,16.58
2022-11-01T05:20:44.219Z,16.14
2022-11-01T05:21:45.881Z,15.63
2022-11-01T05:22:47.574Z,15.14
2022-11-01T05:23:49.438Z,14.68
2022-11-01T05:24:51.116Z,14.32
2022-11-01T05:25:52.815Z,14.31
2022-11-01T05:26:54.458Z,14.64
2022-11-01T05:28:07.007Z,15.07
2022-11-01T05:29:23.896Z,15.55
2022-11-01T05:30:26.451Z,15.96
2022-11-01T05:31:28.116Z,16.23
2022-11-01T05:32:29.826Z,16.46
2022-11-01T05:33:31.545Z,16.63
2022-11-01T05:34:33.432Z,16.79
2022-11-01T05:35:36.388Z,16.90
2022-11-01T05:36:38.224Z,16.74
2022-11-01T05:37:39.833Z,16.33
2022-11-01T05:38:41.478Z,15.82
2022-11-01T05:39:43.158Z,15.34
2022-11-01T05:40:44.780Z,14.90
2022-11-01T05:41:46.453Z,14.51
2022-11-01T05:42:48.448Z,14.34
2022-11-01T05:43:50.264Z,14.55
2022-11-01T05:44:52.069Z,14.93
2022-11-01T05:45:53.740Z,15.32
2022-11-01T05:46:55.351Z,15.66
2022-11-01T05:48:02.418Z,15.95
2022-11-01T05:49:04.265Z,16.18
2022-11-01T05:50:08.163Z,16.37
2022-11-01T05:51:10.802Z,16.52
2022-11-01T05:52:12.450Z,16.66
2022-11-01T05:53:14.726Z,16.78
2022-11-01T05:54:16.451Z,16.86
2022-11-01T05:55:18.194Z,16.70
2022-11-01T05:56:19.839Z,16.28
2022-11-01T05:57:21.465Z,15.76
2022-11-01T05:58:27.889Z,15.28
2022-11-01T05:59:32.375Z,14.78
2022-11-01T06:00:34.928Z,14.48
2022-11-01T06:01:36.624Z,14.58
2022-11-01T06:02:38.531Z,14.94
2022-11-01T06:03:40.243Z,15.36
2022-11-01T06:04:41.851Z,15.73
2022-11-01T06:05:43.500Z,16.05
2022-11-01T06:06:45.145Z,16.32
2022-11-01T06:07:46.911Z,16.54
2022-11-01T06:08:48.538Z,16.72
2022-11-01T06:09:50.226Z,16.87
2022-11-01T06:10:53.007Z,17.00
2022-11-01T06:11:54.654Z,17.11
2022-11-01T06:12:56.775Z,17.01
2022-11-01T06:13:59.504Z,16.62
2022-11-01T06:15:01.121Z,16.12
2022-11-01T06:16:05.727Z,15.63
2022-11-01T06:17:08.376Z,15.18
2022-11-01T06:18:10.120Z,14.83
2022-11-01T06:19:11.849Z,14.82
2022-11-01T06:20:13.803Z,15.13
2022-11-01T06:21:16.031Z,15.55
2022-11-01T06:22:18.003Z,15.96
2022-11-01T06:23:20.012Z,16.31
2022-11-01T06:24:21.924Z,16.60
2022-11-01T06:25:23.614Z,16.84
2022-11-01T06:26:25.315Z,17.05
2022-11-01T06:27:28.091Z,17.22
2022-11-01T06:28:29.916Z,17.31
2022-11-01T06:29:31.570Z,17.07
2022-11-01T06:30:33.244Z,16.64
2022-11-01T06:31:34.902Z,16.16
2022-11-01T06:32:36.558Z,15.69
2022-11-01T06:33:38.219Z,15.28
2022-11-01T06:34:42.399Z,14.95
2022-11-01T06:35:46.767Z,14.97
2022-11-01T06:36:49.026Z,15.33
2022-11-01T06:37:50.669Z,15.80
2022-11-01T06:38:52.426Z,16.21
2022-11-01T06:39:54.060Z,16.57
2022-11-01T06:40:56.030Z,16.84
2022-11-01T06:41:57.732Z,17.07
2022-11-01T06:43:01.668Z,17.26
2022-11-01T06:44:03.683Z,17.43
2022-11-01T06:45:05.824Z,17.38
2022-11-01T06:46:07.965Z,17.05
2022-11-01T06:47:11.921Z,16.59
2022-11-01T06:48:13.992Z,16.11
2022-11-01T06:49:18.884Z,15.68
2022-11-01T06:50:21.183Z,15.31
2022-11-01T06:51:22.868Z,15.11
2022-11-01T06:52:24.535Z,15.29
2022-11-01T06:53:26.243Z,15.71
2022-11-01T06:54:27.893Z,16.15
2022-11-01T06:55:30.158Z,16.56
2022-11-01T06:56:31.840Z,16.91
2022-11-01T06:57:33.497Z,17.20
2022-11-01T06:58:35.280Z,17.45
2022-11-01T06:59:37.006Z,17.61
2022-11-01T07:00:38.746Z,17.46
2022-11-01T07:01:40.578Z,17.06
2022-11-01T07:02:42.298Z,16.60
2022-11-01T07:03:44.129Z,16.15
2022-11-01T07:04:46.145Z,15.75
2022-11-01T07:05:49.535Z,15.41
2022-11-01T07:06:51.244Z,15.20
2022-11-01T07:07:54.017Z,15.37
2022-11-01T07:08:55.817Z,15.80
2022-11-01T07:09:57.724Z,16.26
2022-11-01T07:10:59.394Z,16.66
2022-11-01T07:12:01.127Z,16.99
2022-11-01T07:13:05.485Z,17.26
2022-11-01T07:14:07.219Z,17.47
2022-11-01T07:15:09.225Z,17.63
2022-11-01T07:16:10.845Z,17.63
2022-11-01T07:17:12.460Z,17.32
2022-11-01T07:18:14.115Z,16.88
2022-11-01T07:19:15.851Z,16.41
2022-11-01T07:20:17.447Z,15.98
2022-11-01T07:21:19.305Z,15.60
2022-11-01T07:22:20.943Z,15.29
2022-11-01T07:23:22.598Z,15.34
2022-11-01T07:24:24.371Z,15.70
2022-11-01T07:25:26.317Z,16.13
2022-11-01T07:26:27.965Z,16.56
2022-11-01T07:27:29.617Z,16.91
2022-11-01T07:28:31.284Z,17.21
2022-11-01T07:29:33.009Z,17.45
2022-11-01T07:30:35.267Z,17.66
2022-11-01T07:31:38.876Z,17.83
2022-11-01T07:32:40.473Z,17.87
2022-11-01T07:33:42.118Z,17.60
2022-11-01T07:34:44.166Z,17.17
2022-11-01T07:35:46.723Z,16.71
2022-11-01T07:36:51.846Z,16.29
2022-11-01T07:37:56.252Z,15.88
2022-11-01T07:38:57.954Z,15.61
2022-11-01T07:39:59.597Z,15.71
2022-11-01T07:41:04.448Z,16.09
2022-11-01T07:42:06.111Z,16.57
2022-11-01T07:43:08.399Z,16.99
2022-11-01T07:44:10.073Z,17.35
2022-11-01T07:45:14.013Z,17.65
2022-11-01T07:46:15.728Z,17.91
2022-11-01T07:47:17.461Z,18.10
2022-11-01T07:48:19.950Z,18.24
2022-11-01T07:49:21.565Z,18.26
2022-11-01T07:50:23.269Z,17.96
2022-11-01T07:51:24.883Z,17.49
2022-11-01T07:52:26.677Z,17.01
2022-11-01T07:53:28.327Z,16.57
2022-11-01T07:54:30.228Z,16.20
2022-11-01T07:55:32.829Z,15.91
2022-11-01T07:56:34.722Z,15.96
2022-11-01T07:57:40.919Z,16.31
2022-11-01T07:58:43.660Z,16.78
2022-11-01T07:59:45.348Z,17.19
2022-11-01T08:00:47.137Z,17.53
2022-11-01T08:01:49.050Z,17.79
2022-11-01T08:02:51.148Z,18.00
2022-11-01T08:03:52.790Z,18.18
2022-11-01T08:04:54.579Z,18.33
2022-11-01T08:05:56.391Z,18.36
2022-11-01T08:06:58.039Z,18.04
2022-11-01T08:08:00.348Z,17.59
2022-11-01T08:09:02.319Z,17.13
2022-11-01T08:10:04.385Z,16.70
2022-11-01T08:11:06.243Z,16.31
2022-11-01T08:12:07.964Z,15.97
2022-11-01T08:13:24.335Z,15.84
2022-11-01T08:14:26.061Z,16.19
2022-11-01T08:15:27.911Z,16.62
2022-11-01T08:16:30.002Z,17.04
2022-11-01T08:17:34.723Z,17.41
2022-11-01T08:18:36.374Z,17.74
2022-11-01T08:19:38.051Z,17.98
2022-11-01T08:20:41.185Z,18.18
2022-11-01T08:21:42.985Z,18.37
2022-11-01T08:23:46.783Z,18.41
2022-11-01T08:24:48.415Z,18.02
2022-11-01T08:25:50.069Z,17.54
2022-11-01T08:26:52.971Z,17.08
2022-11-01T08:27:54.672Z,16.64
2022-11-01T08:28:56.318Z,16.27
2022-11-01T08:29:58.019Z,16.07
2022-11-01T08:30:59.682Z,16.25
2022-11-01T08:32:01.411Z,16.67
2022-11-01T08:33:05.284Z,17.14
2022-11-01T08:34:07.566Z,17.59
2022-11-01T08:35:12.023Z,17.96
2022-11-01T08:36:14.726Z,18.30
2022-11-01T08:37:18.580Z,18.58
2022-11-01T08:38:20.331Z,18.81
2022-11-01T08:39:22.186Z,18.99
2022-11-01T08:40:24.030Z,18.94
2022-11-01T08:41:25.730Z,18.60
2022-11-01T08:42:27.338Z,18.13
2022-11-01T08:43:29.568Z,17.70
2022-11-01T08:44:32.674Z,17.31
2022-11-01T08:45:34.397Z,16.95
2022-11-01T08:46:36.076Z,16.66
2022-11-01T08:47:39.516Z,16.65
2022-11-01T08:48:41.226Z,17.00
2022-11-01T08:49:43.014Z,17.45
2022-11-01T08:50:44.700Z,17.89
2022-11-01T08:51:46.382Z,18.30
2022-11-01T08:52:48.055Z,18.67
2022-11-01T08:53:49.979Z,18.95
2022-11-01T08:54:51.650Z,19.20
2022-11-01T08:55:57.433Z,19.37
2022-11-01T08:56:59.085Z,19.25
2022-11-01T08:58:01.081Z,18.88
2022-11-01T08:59:03.753Z,18.42
2022-11-01T09:00:13.742Z,17.99
2022-11-01T09:01:15.613Z,17.61
2022-11-01T09:02:17.826Z,17.31
2022-11-01T09:03:19.618Z,17.08
2022-11-01T09:04:21.558Z,17.15
2022-11-01T09:05:23.615Z,17.54
2022-11-01T09:06:26.234Z,18.04
2022-11-01T09:07:28.331Z,18.55
2022-11-01T09:08:30.008Z,18.97
2022-11-01T09:09:31.957Z,19.29
2022-11-01T09:10:34.164Z,19.54
2022-11-01T09:11:36.323Z,19.53
2022-11-01T09:13:45.145Z,18.79
2022-11-01T09:14:48.488Z,18.38
2022-11-01T09:15:50.157Z,17.99
2022-11-01T09:16:52.490Z,17.66
2022-11-01T09:17:54.291Z,17.37
2022-11-01T09:19:01.454Z,17.14
2022-11-01T09:20:05.079Z,17.26
2022-11-01T09:21:09.900Z,17.68
2022-11-01T09:22:11.632Z,18.19
2022-11-01T09:23:13.297Z,18.65
2022-11-01T09:24:17.555Z,19.01
2022-11-01T09:25:19.986Z,19.32
2022-11-01T09:26:21.653Z,19.54
2022-11-01T09:27:23.295Z,19.50
2022-11-01T09:28:26.175Z,19.16
2022-11-01T09:29:29.545Z,18.68
2022-11-01T09:30:31.268Z,18.22
2022-11-01T09:31:33.497Z,17.82
2022-11-01T09:32:35.122Z,17.48
2022-11-01T09:33:37.122Z,17.17
2022-11-01T09:34:38.798Z,16.89
2022-11-01T09:35:40.587Z,16.74
2022-11-01T09:36:42.242Z,16.95
2022-11-01T09:37:45.247Z,17.38
2022-11-01T09:38:47.090Z,17.85
2022-11-01T09:39:48.747Z,18.25
2022-11-01T09:41:04.382Z,18.60
2022-11-01T09:42:22.860Z,18.94
2022-11-01T09:43:29.541Z,19.20
2022-11-01T09:44:46.960Z,19.21
2022-11-01T09:45:52.680Z,18.79
2022-11-01T09:47:03.228Z,18.27
2022-11-01T09:48:07.110Z,17.75
2022-11-01T09:49:12.936Z,17.31
2022-11-01T09:50:22.426Z,16.91
2022-11-01T09:51:25.503Z,16.53
2022-11-01T09:52:27.418Z,16.28
2022-11-01T09:53:30.775Z,16.39
2022-11-01T09:54:33.458Z,16.77
2022-11-01T09:56:04.271Z,17.21
2022-11-01T09:57:27.031Z,17.76
2022-11-01T09:59:12.466Z,18.13
2022-11-01T10:00:19.220Z,18.51
2022-11-01T10:01:36.280Z,18.66
2022-11-01T10:02:50.352Z,18.68
2022-11-01T10:04:10.602Z,18.26
2022-11-01T10:05:20.937Z,17.61
2022-11-01T10:07:05.499Z,17.07
2022-11-01T10:08:28.690Z,16.36
2022-11-01T10:09:54.008Z,15.96
2022-11-01T10:11:04.307Z,16.19
2022-11-01T10:12:37.364Z,16.63
2022-11-01T10:13:54.354Z,17.19
2022-11-01T10:15:25.029Z,17.54
2022-11-01T10:16:36.391Z,17.88
2022-11-01T10:17:52.103Z,18.06
2022-11-01T10:19:03.299Z,18.19
2022-11-01T10:20:12.318Z,18.32
2022-11-01T10:21:16.949Z,18.25
2022-11-01T10:22:49.057Z,17.87
2022-11-01T10:23:53.788Z,17.15
2022-11-01T10:25:06.973Z,16.67
2022-11-01T10:26:16.591Z,16.18
2022-11-01T10:27:50.328Z,15.83
2022-11-01T10:29:20.737Z,16.03
2022-11-01T10:30:22.586Z,16.67
2022-11-01T10:31:27.595Z,17.08
2022-11-01T10:32:40.945Z,17.44
2022-11-01T10:33:56.135Z,17.76
2022-11-01T10:35:05.265Z,18.01
2022-11-01T10:36:18.557Z,18.17
2022-11-01T10:37:28.864Z,18.34
2022-11-01T10:39:10.347Z,18.50
2022-11-01T10:40:08.403Z,18.52
2022-11-01T10:41:31.128Z,18.07
2022-11-01T10:42:32.995Z,17.41
2022-11-01T10:43:43.115Z,16.93
2022-11-01T10:45:00.405Z,16.46
2022-11-01T10:46:08.726Z,16.17
2022-11-01T10:47:17.006Z,16.38
2022-11-01T10:48:34.135Z,16.83
2022-11-01T10:51:08.395Z,17.79
2022-11-01T10:52:15.537Z,18.06
2022-11-01T10:53:20.664Z,18.28
2022-11-01T10:54:30.408Z,18.48
2022-11-01T10:55:43.458Z,18.63
2022-11-01T10:56:50.440Z,18.79
2022-11-01T10:58:00.261Z,18.89
2022-11-01T10:59:11.225Z,18.69
2022-11-01T11:00:20.278Z,18.17
2022-11-01T11:01:27.397Z,17.65
2022-11-01T11:02:38.725Z,17.18
2022-11-01T11:03:44.608Z,16.75
2022-11-01T11:04:46.544Z,16.58
2022-11-01T11:05:51.552Z,16.81
2022-11-01T11:06:53.253Z,17.24
2022-11-01T11:07:57.324Z,17.65
2022-11-01T11:09:01.286Z,18.02
2022-11-01T11:10:04.101Z,18.31
2022-11-01T11:11:14.377Z,18.57
2022-11-01T11:12:19.819Z,18.78
2022-11-01T11:13:26.490Z,18.88
2022-11-01T11:14:32.964Z,18.71
2022-11-01T11:15:52.622Z,18.20
2022-11-01T11:16:57.681Z,17.56
2022-11-01T11:18:04.248Z,17.07
2022-11-01T11:19:08.898Z,16.65
2022-11-01T11:20:11.683Z,16.31
2022-11-01T11:21:13.743Z,16.24
2022-11-01T11:22:15.635Z,16.55
2022-11-01T11:23:22.026Z,16.98
2022-11-01T11:24:30.383Z,17.42
2022-11-01T11:25:41.180Z,17.80
2022-11-01T11:26:43.445Z,18.10
2022-11-01T11:27:50.357Z,18.32
2022-11-01T11:28:57.010Z,18.53
2022-11-01T11:30:05.187Z,18.66
2022-11-01T11:31:26.700Z,18.49
2022-11-01T11:32:36.085Z,17.89
2022-11-01T11:33:38.005Z,17.33
2022-11-01T11:34:41.617Z,16.86
2022-11-01T11:35:56.796Z,16.45
2022-11-01T11:37:01.930Z,16.03
2022-11-01T11:38:06.917Z,15.81
2022-11-01T11:39:23.611Z,15.99
2022-11-01T11:40:28.336Z,16.50
2022-11-01T11:41:36.634Z,16.98
2022-11-01T11:42:39.198Z,17.40
2022-11-01T11:43:42.058Z,17.73
2022-11-01T11:44:45.356Z,17.98
2022-11-01T11:46:04.728Z,18.16
2022-11-01T11:47:24.459Z,18.36
2022-11-01T11:48:26.237Z,18.47
2022-11-01T11:49:28.103Z,18.53
2022-11-01T11:50:33.051Z,18.32
2022-11-01T11:51:39.607Z,17.83
2022-11-01T11:52:42.466Z,17.27
2022-11-01T11:54:03.115Z,16.79
2022-11-01T11:55:05.509Z,16.24
2022-11-01T11:56:09.523Z,15.88
2022-11-01T11:57:18.982Z,15.67
2022-11-01T11:58:43.633Z,15.90
2022-11-01T11:59:51.648Z,16.46
2022-11-01T12:01:01.328Z,16.85
2022-11-01T12:02:15.012Z,17.17
2022-11-01T12:03:19.007Z,17.44
2022-11-01T12:04:23.685Z,17.61
2022-11-01T12:05:28.747Z,17.74
2022-11-01T12:06:35.073Z,17.81
2022-11-01T12:07:45.226Z,17.81
2022-11-01T12:08:53.406Z,17.44
2022-11-01T12:09:57.373Z,16.85
2022-11-01T12:10:59.193Z,16.31
2022-11-01T12:12:42.657Z,15.84
2022-11-01T12:14:02.691Z,15.14
2022-11-01T12:15:29.109Z,14.91
2022-11-01T12:16:40.555Z,15.34
2022-11-01T12:17:46.900Z,15.84
2022-11-01T12:19:01.782Z,16.27
2022-11-01T12:20:18.558Z,16.66
2022-11-01T12:21:41.617Z,16.94
2022-11-01T12:22:50.373Z,17.16
2022-11-01T12:24:01.255Z,17.32
2022-11-01T12:25:12.806Z,17.38
2022-11-01T12:26:20.914Z,17.46
2022-11-01T12:27:30.664Z,17.50
2022-11-01T12:28:47.522Z,17.58
2022-11-01T12:29:54.000Z,17.68
2022-11-01T12:31:08.827Z,17.60
2022-11-01T12:32:35.190Z,17.13
2022-11-01T12:34:05.263Z,16.42
2022-11-01T12:35:20.024Z,15.75
2022-11-01T12:36:31.049Z,15.36
2022-11-01T12:37:58.516Z,15.42
2022-11-01T12:39:27.883Z,15.90
2022-11-01T12:40:37.916Z,16.40
2022-11-01T12:41:59.446Z,16.68
2022-11-01T12:43:13.150Z,16.95
2022-11-01T12:44:32.914Z,17.14
2022-11-01T12:45:46.647Z,17.32
2022-11-01T12:47:03.542Z,17.46
2022-11-01T12:48:28.186Z,17.60
2022-11-01T12:50:07.634Z,17.67
2022-11-01T12:51:26.181Z,17.23
2022-11-01T12:52:47.042Z,16.58
2022-11-01T12:54:15.544Z,15.92
2022-11-01T12:55:37.056Z,15.25
2022-11-01T12:56:39.945Z,14.80
2022-11-01T12:57:41.673Z,14.85
2022-11-01T12:58:43.676Z,15.21
2022-11-01T12:59:47.248Z,15.65
2022-11-01T13:01:23.976Z,16.03
2022-11-01T13:02:40.020Z,16.45
2022-11-01T13:04:12.404Z,16.71
2022-11-01T13:05:28.884Z,16.90
2022-11-01T13:06:39.962Z,17.02
2022-11-01T13:08:10.418Z,17.14
2022-11-01T13:09:21.669Z,17.24
2022-11-01T13:12:01.328Z,17.49
2022-11-01T13:13:33.172Z,17.56
2022-11-01T13:15:08.221Z,17.23
2022-11-01T13:16:31.821Z,16.47
2022-11-01T13:18:02.213Z,15.79
2022-11-01T13:19:18.277Z,15.16
2022-11-01T13:20:34.980Z,14.84
2022-11-01T13:21:58.290Z,15.10
2022-11-01T13:23:14.885Z,15.58
2022-11-01T13:24:38.149Z,16.03
2022-11-01T13:25:47.852Z,16.43
2022-11-01T13:27:05.989Z,16.67
2022-11-01T13:28:32.612Z,16.90
2022-11-01T13:29:45.447Z,17.13
2022-11-01T13:31:06.383Z,17.29
2022-11-01T13:32:29.975Z,17.41
2022-11-01T13:33:50.126Z,17.54
2022-11-01T13:35:13.422Z,17.67
2022-11-01T13:36:36.233Z,17.80
2022-11-01T13:37:53.440Z,17.77
2022-11-01T13:39:38.048Z,17.32
2022-11-01T13:40:56.977Z,16.50
2022-11-01T13:42:12.979Z,15.93
2022-11-01T13:43:24.089Z,15.58
2022-11-01T13:44:31.214Z,15.76
2022-11-01T13:45:41.867Z,16.19
2022-11-01T13:46:58.292Z,16.65
2022-11-01T13:48:12.844Z,17.08
2022-11-01T13:49:37.669Z,17.41
2022-11-01T13:51:11.536Z,17.71
2022-11-01T13:52:20.895Z,17.95
2022-11-01T13:53:41.763Z,18.10
2022-11-01T13:54:52.051Z,18.23
2022-11-01T13:56:02.481Z,17.98
2022-11-01T13:57:06.862Z,17.49
2022-11-01T13:58:18.405Z,16.99
2022-11-01T13:59:44.829Z,16.48
2022-11-01T14:00:50.507Z,15.97
2022-11-01T14:01:52.355Z,15.96
2022-11-01T14:03:01.185Z,16.28
2022-11-01T14:04:12.131Z,16.75
2022-11-01T14:05:13.925Z,17.19
2022-11-01T14:06:37.108Z,17.52
2022-11-01T14:08:05.094Z,17.87
2022-11-01T14:09:27.964Z,18.19
2022-11-01T14:10:29.882Z,18.45
2022-11-01T14:11:47.391Z,18.56
2022-11-01T14:13:07.364Z,18.28
2022-11-01T14:14:30.851Z,17.69
2022-11-01T14:15:52.417Z,17.07
2022-11-01T14:17:19.744Z,16.57
2022-11-01T14:18:22.178Z,16.24
2022-11-01T14:19:24.156Z,16.44
2022-11-01T14:20:25.754Z,16.85
2022-11-01T14:21:32.101Z,17.28
2022-11-01T14:22:34.270Z,17.67
2022-11-01T14:23:38.827Z,17.99
2022-11-01T14:24:54.249Z,18.27
2022-11-01T14:26:20.751Z,18.53
2022-11-01T14:27:35.850Z,18.68
2022-11-01T14:28:43.314Z,18.35
2022-11-01T14:29:49.875Z,17.86
2022-11-01T14:30:53.379Z,17.37
2022-11-01T14:31:57.013Z,16.95
2022-11-01T14:33:04.581Z,16.56
2022-11-01T14:34:09.741Z,16.21
2022-11-01T14:35:12.012Z,16.17